createdAt,value
2022-07-26T00:00:06.168Z,54.22
2022-07-26T00:02:32.830Z,53.16
2022-07-26T00:04:59.517Z,53.55
2022-07-26T00:07:26.119Z,52.83
2022-07-26T00:09:52.679Z,53.46
2022-07-26T00:12:19.284Z,53.11
2022-07-26T00:14:45.917Z,52.40
2022-07-26T00:17:12.493Z,52.81
2022-07-26T00:19:39.396Z,53.26
2022-07-26T00:22:24.916Z,53.58
2022-07-26T00:24:51.586Z,54.68
2022-07-26T00:27:18.197Z,55.95
2022-07-26T00:29:44.882Z,55.94
2022-07-26T00:32:11.646Z,55.96
2022-07-26T00:34:38.277Z,57.05
2022-07-26T00:37:04.963Z,57.17
2022-07-26T00:39:31.550Z,58.83
2022-07-26T00:41:58.292Z,58.78
2022-07-26T00:44:24.867Z,58.37
2022-07-26T00:46:51.509Z,58.77
2022-07-26T00:49:18.174Z,59.80
2022-07-26T00:51:45.596Z,59.78
2022-07-26T00:54:13.217Z,59.02
2022-07-26T00:56:40.179Z,59.92
2022-07-26T00:59:07.023Z,60.66
2022-07-26T01:01:34.027Z,60.73
2022-07-26T01:04:00.777Z,59.79
2022-07-26T01:06:27.722Z,61.46
2022-07-26T01:08:54.832Z,60.95
2022-07-26T01:11:21.526Z,60.80
2022-07-26T01:13:51.402Z,59.86
2022-07-26T01:16:18.350Z,60.24
2022-07-26T01:18:45.103Z,60.01
2022-07-26T01:21:14.026Z,60.27
2022-07-26T01:23:41.512Z,60.02
2022-07-26T01:26:08.542Z,58.96
2022-07-26T01:28:40.248Z,59.60
2022-07-26T01:31:08.632Z,59.43
2022-07-26T01:33:35.505Z,60.30
2022-07-26T01:36:02.179Z,60.32
2022-07-26T01:38:29.310Z,60.10
2022-07-26T01:40:56.115Z,60.08
2022-07-26T01:43:22.727Z,60.85
2022-07-26T01:45:49.411Z,60.60
2022-07-26T01:48:16.233Z,61.10
2022-07-26T01:50:42.882Z,60.70
2022-07-26T01:53:09.652Z,60.84
2022-07-26T01:55:37.085Z,62.19
2022-07-26T01:58:05.562Z,62.46
2022-07-26T02:00:33.135Z,63.01
2022-07-26T02:03:00.317Z,62.38
2022-07-26T02:05:27.084Z,62.89
2022-07-26T02:07:53.759Z,62.91
2022-07-26T02:10:21.995Z,62.52
2022-07-26T02:12:48.591Z,63.32
2022-07-26T02:15:16.087Z,63.77
2022-07-26T02:17:43.345Z,63.64
2022-07-26T02:20:10.284Z,63.81
2022-07-26T02:22:36.869Z,63.95
2022-07-26T02:25:05.533Z,64.77
2022-07-26T02:27:32.860Z,64.84
2022-07-26T02:29:59.505Z,65.17
2022-07-26T02:32:26.232Z,65.57
2022-07-26T02:34:52.811Z,64.21
2022-07-26T02:37:19.479Z,63.83
2022-07-26T02:39:46.085Z,63.51
2022-07-26T02:42:12.687Z,63.54
2022-07-26T02:44:39.341Z,63.12
2022-07-26T02:47:06.005Z,63.90
2022-07-26T02:49:32.709Z,63.81
2022-07-26T02:51:59.358Z,64.49
2022-07-26T02:54:25.993Z,64.79
2022-07-26T02:56:52.578Z,64.63
2022-07-26T02:59:19.244Z,64.62
2022-07-26T03:01:45.967Z,63.77
2022-07-26T03:04:12.642Z,63.59
2022-07-26T03:06:39.290Z,63.51
2022-07-26T03:09:05.938Z,63.82
2022-07-26T03:11:32.529Z,63.24
2022-07-26T03:13:59.115Z,63.31
2022-07-26T03:16:29.416Z,63.80
2022-07-26T03:18:56.591Z,63.97
2022-07-26T03:21:23.452Z,63.99
2022-07-26T03:23:50.094Z,63.84
2022-07-26T03:26:16.816Z,63.79
2022-07-26T03:28:44.709Z,63.63
2022-07-26T03:31:14.262Z,63.19
2022-07-26T03:33:41.123Z,63.43
2022-07-26T03:36:11.478Z,63.02
2022-07-26T03:38:38.608Z,63.67
2022-07-26T03:41:05.366Z,63.72
2022-07-26T03:43:31.982Z,67.67
2022-07-26T03:46:03.267Z,68.22
2022-07-26T03:48:31.400Z,70.63
2022-07-26T03:50:58.133Z,71.82
2022-07-26T03:53:24.750Z,73.26
2022-07-26T03:56:10.127Z,73.04
2022-07-26T03:58:36.798Z,74.46
2022-07-26T04:01:04.376Z,74.74
2022-07-26T04:03:31.139Z,73.93
2022-07-26T04:05:57.931Z,74.71
2022-07-26T04:08:24.877Z,75.45
2022-07-26T04:10:51.573Z,75.67
2022-07-26T04:13:19.262Z,75.42
2022-07-26T04:15:46.084Z,75.75
2022-07-26T04:18:14.275Z,75.52
2022-07-26T04:20:41.383Z,76.84
2022-07-26T04:23:11.611Z,76.76
2022-07-26T04:25:40.813Z,76.60
2022-07-26T04:28:09.170Z,76.93
2022-07-26T04:30:36.405Z,76.53
2022-07-26T04:33:03.587Z,77.06
2022-07-26T04:35:30.326Z,79.66
2022-07-26T04:37:57.026Z,78.59
2022-07-26T04:40:24.928Z,80.45
2022-07-26T04:42:52.485Z,78.01
2022-07-26T04:45:20.048Z,79.22
2022-07-26T04:47:52.482Z,79.74
2022-07-26T04:50:21.023Z,78.68
2022-07-26T04:52:51.622Z,76.56
2022-07-26T04:55:19.078Z,76.92
2022-07-26T04:57:47.677Z,75.15
2022-07-26T05:00:23.016Z,75.04
2022-07-26T05:02:56.660Z,75.46
2022-07-26T05:05:25.278Z,76.27
2022-07-26T05:07:54.197Z,75.61
2022-07-26T05:10:22.962Z,75.62
2022-07-26T05:12:49.949Z,75.46
2022-07-26T05:15:16.985Z,74.42
2022-07-26T05:17:44.422Z,74.20
2022-07-26T05:20:14.237Z,74.60
2022-07-26T05:22:41.354Z,75.13
2022-07-26T05:25:08.629Z,74.59
2022-07-26T05:27:35.436Z,73.93
2022-07-26T05:30:02.106Z,72.57
2022-07-26T05:32:28.745Z,74.09
2022-07-26T05:34:55.602Z,74.72
2022-07-26T05:37:22.263Z,74.75
2022-07-26T05:39:48.875Z,73.61
2022-07-26T05:42:15.498Z,73.81
2022-07-26T05:44:42.632Z,73.48
2022-07-26T05:47:10.549Z,72.33
2022-07-26T05:49:40.493Z,72.91
2022-07-26T05:52:08.111Z,70.61
2022-07-26T05:54:35.102Z,69.46
2022-07-26T05:57:02.017Z,69.91
2022-07-26T05:59:28.757Z,72.12
2022-07-26T06:01:58.868Z,69.25
2022-07-26T06:04:26.787Z,70.42
2022-07-26T06:06:54.898Z,68.82
2022-07-26T06:09:24.204Z,69.38
2022-07-26T06:11:51.312Z,68.26
2022-07-26T06:14:18.521Z,68.22
2022-07-26T06:16:46.830Z,67.58
2022-07-26T06:19:13.770Z,68.06
2022-07-26T06:21:42.220Z,68.50
2022-07-26T06:24:09.111Z,66.21
2022-07-26T06:26:35.971Z,65.95
2022-07-26T06:29:04.030Z,65.82
2022-07-26T06:31:31.184Z,65.98
2022-07-26T06:33:57.850Z,67.68
2022-07-26T06:36:29.974Z,67.85
2022-07-26T06:38:57.825Z,68.36
2022-07-26T06:41:24.515Z,68.42
2022-07-26T06:43:51.194Z,66.65
2022-07-26T06:46:19.377Z,66.61
2022-07-26T06:48:47.292Z,65.56
2022-07-26T06:51:14.409Z,64.69
2022-07-26T06:53:41.049Z,65.06
2022-07-26T06:56:07.998Z,64.97
2022-07-26T06:58:34.630Z,65.08
2022-07-26T07:01:01.309Z,65.84
2022-07-26T07:03:27.938Z,65.41
2022-07-26T07:05:54.665Z,65.76
2022-07-26T07:08:23.403Z,66.25
2022-07-26T07:10:50.798Z,65.30
2022-07-26T07:13:18.033Z,64.46
2022-07-26T07:15:44.820Z,65.95
2022-07-26T07:18:11.958Z,66.41
2022-07-26T07:20:40.240Z,65.27
2022-07-26T07:23:07.801Z,63.69
2022-07-26T07:25:34.628Z,64.86
2022-07-26T07:28:01.321Z,64.83
2022-07-26T07:30:28.306Z,63.90
2022-07-26T07:32:55.820Z,64.72
2022-07-26T07:35:23.242Z,63.97
2022-07-26T07:37:52.569Z,62.88
2022-07-26T07:40:21.087Z,62.33
2022-07-26T07:42:47.736Z,62.21
2022-07-26T07:45:14.995Z,61.43
2022-07-26T07:47:41.840Z,59.22
2022-07-26T07:50:09.084Z,60.25
2022-07-26T07:52:36.122Z,60.39
2022-07-26T07:55:37.828Z,59.70
2022-07-26T07:57:49.781Z,59.39
2022-07-26T08:00:19.310Z,58.66
2022-07-26T08:02:53.623Z,57.31
2022-07-26T08:05:20.363Z,59.00
2022-07-26T08:07:48.405Z,56.81
2022-07-26T08:10:15.450Z,58.25
2022-07-26T08:12:44.298Z,56.19
2022-07-26T08:15:11.431Z,56.44
2022-07-26T08:17:41.761Z,57.17
2022-07-26T08:20:10.849Z,55.72
2022-07-26T08:22:42.732Z,54.65
2022-07-26T08:25:09.937Z,54.37
2022-07-26T08:27:40.833Z,53.79
2022-07-26T08:30:08.540Z,55.71
2022-07-26T08:32:35.784Z,55.25
2022-07-26T08:35:17.642Z,55.85
2022-07-26T08:37:46.280Z,55.24
2022-07-26T08:40:13.009Z,55.53
2022-07-26T08:42:39.979Z,54.61
2022-07-26T08:45:07.129Z,53.53
2022-07-26T08:47:37.758Z,54.39
2022-07-26T08:50:09.752Z,55.09
2022-07-26T08:52:40.015Z,51.23
2022-07-26T08:55:07.206Z,49.76
2022-07-26T08:57:34.484Z,49.56
2022-07-26T09:00:19.447Z,48.77
2022-07-26T09:02:46.671Z,47.81
2022-07-26T09:05:13.569Z,45.74
2022-07-26T09:07:40.864Z,46.51
2022-07-26T09:10:10.413Z,46.15
2022-07-26T09:12:38.062Z,45.58
2022-07-26T09:15:07.522Z,44.17
2022-07-26T09:17:40.932Z,44.30
2022-07-26T09:20:09.183Z,47.07
2022-07-26T09:22:37.685Z,47.90
2022-07-26T09:25:20.589Z,47.75
2022-07-26T09:27:47.687Z,45.63
2022-07-26T09:30:15.187Z,44.58
2022-07-26T09:32:58.960Z,47.17
2022-07-26T09:38:14.793Z,44.13
2022-07-26T09:40:41.881Z,44.34
2022-07-26T09:43:16.492Z,46.18
2022-07-26T09:46:05.336Z,46.65
2022-07-26T09:48:52.386Z,48.53
2022-07-26T09:51:40.665Z,47.78
2022-07-26T09:54:09.069Z,48.39
2022-07-26T09:56:44.846Z,48.45
2022-07-26T09:59:14.081Z,47.68
2022-07-26T10:01:40.844Z,45.33
2022-07-26T10:04:08.090Z,48.19
2022-07-26T10:06:35.083Z,47.03
2022-07-26T10:09:02.671Z,46.92
2022-07-26T10:11:35.664Z,45.00
2022-07-26T10:14:33.938Z,45.37
2022-07-26T10:17:31.030Z,45.54
2022-07-26T10:20:10.750Z,46.95
2022-07-26T10:22:47.336Z,45.77
2022-07-26T10:25:20.169Z,45.67
2022-07-26T10:28:00.029Z,46.21
2022-07-26T10:30:34.235Z,45.08
2022-07-26T10:33:10.280Z,44.70
2022-07-26T10:35:38.871Z,42.41
2022-07-26T10:38:07.046Z,42.46
2022-07-26T10:40:34.091Z,42.60
2022-07-26T10:46:20.723Z,41.13
2022-07-26T10:49:04.580Z,41.66
2022-07-26T10:51:37.064Z,41.52
2022-07-26T10:54:08.947Z,41.47
2022-07-26T10:56:36.158Z,39.34
2022-07-26T10:59:04.193Z,40.48
2022-07-26T11:01:39.557Z,38.31
2022-07-26T11:04:17.533Z,38.39
2022-07-26T11:06:45.887Z,38.91
2022-07-26T11:09:13.435Z,40.57
2022-07-26T11:11:46.471Z,38.24
2022-07-26T11:14:16.243Z,38.24
2022-07-26T11:16:45.594Z,38.49
2022-07-26T11:19:26.050Z,37.97
2022-07-26T11:22:01.156Z,38.15
2022-07-26T11:24:28.803Z,37.52
2022-07-26T11:26:57.270Z,36.87
2022-07-26T11:29:37.908Z,37.24
2022-07-26T11:32:17.991Z,38.48
2022-07-26T11:34:45.565Z,35.81
2022-07-26T11:37:12.438Z,38.51
2022-07-26T11:39:39.138Z,37.81
2022-07-26T11:42:08.297Z,37.58
2022-07-26T11:44:36.028Z,36.01
2022-07-26T11:47:20.344Z,39.25
2022-07-26T11:50:09.683Z,38.05
2022-07-26T11:52:35.264Z,36.11
2022-07-26T11:55:01.879Z,36.67
2022-07-26T11:57:32.697Z,38.20
2022-07-26T12:00:00.672Z,39.06
2022-07-26T12:02:29.088Z,37.47
2022-07-26T12:05:16.484Z,39.39
2022-07-26T12:08:00.937Z,36.43
2022-07-26T12:10:28.427Z,35.60
2022-07-26T12:13:09.943Z,35.15
2022-07-26T12:15:45.653Z,34.68
2022-07-26T12:18:21.846Z,33.41
2022-07-26T12:21:08.433Z,34.03
2022-07-26T12:23:48.154Z,36.68
2022-07-26T12:26:22.269Z,34.70
2022-07-26T12:28:48.953Z,34.28
2022-07-26T12:31:33.006Z,33.95
2022-07-26T12:33:59.854Z,35.70
2022-07-26T12:36:29.576Z,35.64
2022-07-26T12:39:00.808Z,34.47
2022-07-26T12:41:40.483Z,34.80
2022-07-26T12:44:11.995Z,34.37
2022-07-26T12:46:39.268Z,34.63
2022-07-26T12:49:06.053Z,34.72
2022-07-26T12:51:32.928Z,35.49
2022-07-26T12:53:59.615Z,36.88
2022-07-26T12:56:26.247Z,35.88
2022-07-26T12:58:54.130Z,34.24
2022-07-26T13:01:21.396Z,35.24
2022-07-26T13:03:48.121Z,35.20
2022-07-26T13:06:14.772Z,36.72
2022-07-26T13:08:41.357Z,34.91
2022-07-26T13:11:08.015Z,35.88
2022-07-26T13:13:34.622Z,37.03
2022-07-26T13:16:01.286Z,36.89
2022-07-26T13:18:27.914Z,35.93
2022-07-26T13:20:54.674Z,33.11
2022-07-26T13:23:22.112Z,33.36
2022-07-26T13:25:52.635Z,32.25
2022-07-26T13:28:19.597Z,33.98
2022-07-26T13:30:46.269Z,32.77
2022-07-26T13:33:12.946Z,34.63
2022-07-26T13:35:42.689Z,34.81
2022-07-26T13:38:09.831Z,35.68
2022-07-26T13:40:37.071Z,35.61
2022-07-26T13:43:05.002Z,35.50
2022-07-26T13:45:31.701Z,34.92
2022-07-26T13:47:59.664Z,37.07
2022-07-26T13:50:28.186Z,37.40
2022-07-26T13:52:56.389Z,38.78
2022-07-26T13:55:23.483Z,35.89
2022-07-26T13:57:57.191Z,36.18
2022-07-26T14:00:29.533Z,35.99
2022-07-26T14:02:59.241Z,35.19
2022-07-26T14:05:27.083Z,34.93
2022-07-26T14:07:54.525Z,35.21
2022-07-26T14:10:22.210Z,34.71
2022-07-26T14:12:49.506Z,35.00
2022-07-26T14:15:22.160Z,34.81
2022-07-26T14:17:50.040Z,33.92
2022-07-26T14:20:20.067Z,33.45
2022-07-26T14:22:47.459Z,35.83
2022-07-26T14:25:14.749Z,34.08
2022-07-26T14:27:41.375Z,34.37
2022-07-26T14:30:08.311Z,34.59
2022-07-26T14:32:35.006Z,35.54
2022-07-26T14:35:01.938Z,33.67
2022-07-26T14:37:44.894Z,33.85
2022-07-26T14:40:14.257Z,34.40
2022-07-26T14:42:41.053Z,35.16
2022-07-26T14:45:09.629Z,32.18
2022-07-26T14:47:36.887Z,29.92
2022-07-26T14:50:07.342Z,27.55
2022-07-26T14:52:37.235Z,24.21
2022-07-26T14:55:04.719Z,23.30
2022-07-26T14:57:31.366Z,21.82
2022-07-26T14:59:59.325Z,19.54
2022-07-26T15:02:26.740Z,19.26
2022-07-26T15:04:53.548Z,18.06
2022-07-26T15:07:20.308Z,19.02
2022-07-26T15:09:46.928Z,19.09
2022-07-26T15:12:13.640Z,17.60
2022-07-26T15:14:42.061Z,16.41
2022-07-26T15:17:08.649Z,16.58
2022-07-26T15:19:35.340Z,16.47
2022-07-26T15:22:02.174Z,19.11
2022-07-26T15:24:29.093Z,22.48
2022-07-26T15:26:55.874Z,24.17
2022-07-26T15:29:22.636Z,26.54
2022-07-26T15:31:49.447Z,26.53
2022-07-26T15:34:16.374Z,26.06
2022-07-26T15:36:43.444Z,27.52
2022-07-26T15:39:18.338Z,27.30
2022-07-26T15:41:47.291Z,26.01
2022-07-26T15:44:17.091Z,25.42
2022-07-26T15:46:48.628Z,27.20
2022-07-26T15:49:16.874Z,26.78
2022-07-26T15:51:44.397Z,27.02
2022-07-26T15:54:13.350Z,26.08
2022-07-26T15:56:41.020Z,24.23
2022-07-26T15:59:08.433Z,21.97
2022-07-26T16:01:36.704Z,21.46
2022-07-26T16:04:05.267Z,21.13
2022-07-26T16:06:33.403Z,20.80
2022-07-26T16:09:19.134Z,19.96
2022-07-26T16:11:47.103Z,19.63
2022-07-26T16:14:14.111Z,18.78
2022-07-26T16:16:40.830Z,18.58
2022-07-26T16:19:07.762Z,19.38
2022-07-26T16:21:34.744Z,19.17
2022-07-26T16:24:06.465Z,18.86
2022-07-26T16:26:33.849Z,18.13
2022-07-26T16:29:00.845Z,17.67
2022-07-26T16:31:27.766Z,18.08
2022-07-26T16:33:56.854Z,18.65
2022-07-26T16:36:23.925Z,17.68
2022-07-26T16:38:50.541Z,18.94
2022-07-26T16:41:17.340Z,17.28
2022-07-26T16:43:43.939Z,17.62
2022-07-26T16:46:10.679Z,16.76
2022-07-26T16:48:37.563Z,17.81
2022-07-26T16:51:04.816Z,17.92
2022-07-26T16:53:31.422Z,17.81
2022-07-26T16:55:58.066Z,18.58
2022-07-26T16:58:24.658Z,18.86
2022-07-26T17:00:51.317Z,19.72
2022-07-26T17:03:18.480Z,22.32
2022-07-26T17:05:46.317Z,24.15
2022-07-26T17:08:13.257Z,26.11
2022-07-26T17:10:39.981Z,25.77
2022-07-26T17:13:07.033Z,27.38
2022-07-26T17:15:33.745Z,28.24
2022-07-26T17:18:00.529Z,27.98
2022-07-26T17:20:27.371Z,28.53
2022-07-26T17:22:54.457Z,30.05
2022-07-26T17:25:21.215Z,31.41
2022-07-26T17:27:47.826Z,31.07
2022-07-26T17:30:14.637Z,31.29
2022-07-26T17:32:41.351Z,31.80
2022-07-26T17:35:09.181Z,31.62
2022-07-26T17:37:36.115Z,31.89
2022-07-26T17:40:07.814Z,33.24
2022-07-26T17:42:34.737Z,32.84
2022-07-26T17:45:01.342Z,33.89
2022-07-26T17:47:30.363Z,33.59
2022-07-26T17:50:26.347Z,35.20
2022-07-26T17:52:50.257Z,35.80
2022-07-26T17:55:18.555Z,36.71
2022-07-26T17:57:46.047Z,35.37
2022-07-26T18:00:13.600Z,36.44
2022-07-26T18:02:40.264Z,34.76
2022-07-26T18:05:07.080Z,35.35
2022-07-26T18:07:33.716Z,36.66
2022-07-26T18:10:00.281Z,39.00
2022-07-26T18:12:26.858Z,38.25
2022-07-26T18:14:53.426Z,36.88
2022-07-26T18:17:19.976Z,36.27
2022-07-26T18:19:46.640Z,37.16
2022-07-26T18:22:13.208Z,38.49
2022-07-26T18:24:39.858Z,38.04
2022-07-26T18:27:06.675Z,38.61
2022-07-26T18:29:33.302Z,39.45
2022-07-26T18:32:01.789Z,38.68
2022-07-26T18:34:28.822Z,37.78
2022-07-26T18:36:55.740Z,37.08
2022-07-26T18:39:22.446Z,37.55
2022-07-26T18:41:49.139Z,39.74
2022-07-26T18:44:15.807Z,39.25
2022-07-26T18:46:42.464Z,39.99
2022-07-26T18:49:09.942Z,39.68
2022-07-26T18:51:48.834Z,41.11
2022-07-26T18:54:16.193Z,40.87
2022-07-26T18:56:42.843Z,41.01
2022-07-26T18:59:09.923Z,40.05
2022-07-26T19:01:36.874Z,37.30
2022-07-26T19:04:06.823Z,38.33
2022-07-26T19:06:34.762Z,39.86
2022-07-26T19:09:01.488Z,38.59
2022-07-26T19:11:29.639Z,39.20
2022-07-26T19:13:56.236Z,39.36
2022-07-26T19:16:23.198Z,38.95
2022-07-26T19:18:53.825Z,39.54
2022-07-26T19:21:23.649Z,41.07
2022-07-26T19:23:50.407Z,41.53
2022-07-26T19:26:17.195Z,43.43
2022-07-26T19:28:43.810Z,45.34
2022-07-26T19:31:10.791Z,45.90
2022-07-26T19:33:37.424Z,45.63
2022-07-26T19:36:04.342Z,47.10
2022-07-26T19:38:33.072Z,47.28
2022-07-26T19:41:00.637Z,48.01
2022-07-26T19:43:27.587Z,47.87
2022-07-26T19:45:54.295Z,48.42
2022-07-26T19:48:21.183Z,49.53
2022-07-26T19:50:47.822Z,48.70
2022-07-26T19:53:14.576Z,49.34
2022-07-26T19:55:41.770Z,51.50
2022-07-26T19:58:08.564Z,51.32
2022-07-26T20:00:35.604Z,50.54
2022-07-26T20:03:02.284Z,50.80
2022-07-26T20:05:28.886Z,51.38
2022-07-26T20:07:58.144Z,53.64
2022-07-26T20:10:30.054Z,53.47
2022-07-26T20:12:58.979Z,52.23
2022-07-26T20:15:26.156Z,53.08
2022-07-26T20:17:52.899Z,53.62
2022-07-26T20:20:20.150Z,53.91
2022-07-26T20:22:47.066Z,54.84
2022-07-26T20:25:18.049Z,54.17
2022-07-26T20:27:48.344Z,54.19
2022-07-26T20:30:15.049Z,54.95
2022-07-26T20:32:41.623Z,53.77
2022-07-26T20:35:08.589Z,53.91
2022-07-26T20:37:35.706Z,53.68
2022-07-26T20:40:02.380Z,48.20
2022-07-26T20:42:28.957Z,47.24
2022-07-26T20:44:56.034Z,51.27
2022-07-26T20:47:22.947Z,50.93
2022-07-26T20:49:49.884Z,47.30
2022-07-26T20:52:16.693Z,49.86
2022-07-26T20:54:43.322Z,46.91
2022-07-26T20:57:09.901Z,45.01
2022-07-26T20:59:36.514Z,44.84
2022-07-26T21:02:03.262Z,45.43
2022-07-26T21:04:30.225Z,45.31
2022-07-26T21:06:56.776Z,43.67
2022-07-26T21:09:27.061Z,44.33
2022-07-26T21:11:54.554Z,44.59
2022-07-26T21:14:21.127Z,45.82
2022-07-26T21:16:47.941Z,45.66
2022-07-26T21:19:15.057Z,43.71
2022-07-26T21:21:41.887Z,44.83
2022-07-26T21:24:08.675Z,46.51
2022-07-26T21:26:35.312Z,47.77
2022-07-26T21:29:01.899Z,46.62
2022-07-26T21:31:28.595Z,48.31
2022-07-26T21:33:55.510Z,49.38
2022-07-26T21:36:22.427Z,48.77
2022-07-26T21:38:49.108Z,50.03
2022-07-26T21:41:15.770Z,50.39
2022-07-26T21:43:42.422Z,50.47
2022-07-26T21:46:12.624Z,50.26
2022-07-26T21:48:40.216Z,50.82
2022-07-26T21:51:07.386Z,50.54
2022-07-26T21:53:34.063Z,52.31
2022-07-26T21:56:00.665Z,51.13
2022-07-26T21:58:28.108Z,51.89
2022-07-26T22:01:06.484Z,52.19
2022-07-26T22:03:35.281Z,52.04
2022-07-26T22:06:02.010Z,53.21
2022-07-26T22:08:28.750Z,52.47
2022-07-26T22:10:55.624Z,53.41
2022-07-26T22:13:22.237Z,53.49
2022-07-26T22:15:49.037Z,53.08
2022-07-26T22:18:15.878Z,53.42
2022-07-26T22:20:44.230Z,48.20
2022-07-26T22:23:12.177Z,50.41
2022-07-26T22:25:39.457Z,51.20
2022-07-26T22:28:08.297Z,51.03
2022-07-26T22:30:35.045Z,53.10
2022-07-26T22:33:03.890Z,52.17
2022-07-26T22:35:35.984Z,53.27
2022-07-26T22:38:12.880Z,53.03
2022-07-26T22:40:41.317Z,52.25
2022-07-26T22:43:08.260Z,48.30
2022-07-26T22:45:35.797Z,48.11
2022-07-26T22:48:04.114Z,46.06
2022-07-26T22:50:31.158Z,46.63
2022-07-26T22:52:57.787Z,46.86
2022-07-26T22:55:24.578Z,45.77
2022-07-26T22:57:51.186Z,45.42
2022-07-26T23:00:19.579Z,45.51
2022-07-26T23:02:47.866Z,47.15
2022-07-26T23:05:15.836Z,48.14
2022-07-26T23:07:43.575Z,46.88
2022-07-26T23:10:15.258Z,47.90
2022-07-26T23:12:42.371Z,49.60
2022-07-26T23:15:09.902Z,51.09
2022-07-26T23:17:36.833Z,49.91
2022-07-26T23:20:06.664Z,50.38
2022-07-26T23:22:34.078Z,49.35
2022-07-26T23:25:00.728Z,49.63
2022-07-26T23:27:27.345Z,52.82
2022-07-26T23:29:54.010Z,51.55
2022-07-26T23:32:20.659Z,51.14
2022-07-26T23:34:47.262Z,51.68
2022-07-26T23:37:13.872Z,50.57
2022-07-26T23:39:40.565Z,50.63
2022-07-26T23:42:07.360Z,50.80
2022-07-26T23:44:34.333Z,52.23
2022-07-26T23:47:01.215Z,52.44
2022-07-26T23:49:27.925Z,53.85
2022-07-26T23:51:55.976Z,54.49
2022-07-26T23:54:22.877Z,54.33
2022-07-26T23:56:49.560Z,54.10
2022-07-26T23:59:16.198Z,54.83
